sensor_id;sensor_type;location;lat;lon;timestamp;P1;durP1;ratioP1;P2;durP2;ratioP2
13897;SDS011;7019;50.766;4.474;2022-07-23T00:01:21;16.43;;;13.47;;
13897;SDS011;7019;50.766;4.474;2022-07-23T00:03:50;13.97;;;12.57;;
13897;SDS011;7019;50.766;4.474;2022-07-23T00:06:19;14.67;;;12.87;;
13897;SDS011;7019;50.766;4.474;2022-07-23T00:08:46;15.53;;;12.57;;
13897;SDS011;7019;50.766;4.474;2022-07-23T00:11:13;17.00;;;14.17;;
13897;SDS011;7019;50.766;4.474;2022-07-23T00:13:40;19.93;;;15.53;;
13897;SDS011;7019;50.766;4.474;2022-07-23T00:16:08;16.67;;;14.10;;
13897;SDS011;7019;50.766;4.474;2022-07-23T00:18:35;16.63;;;14.90;;
13897;SDS011;7019;50.766;4.474;2022-07-23T00:21:04;16.87;;;14.53;;
13897;SDS011;7019;50.766;4.474;2022-07-23T00:23:31;25.60;;;20.23;;
13897;SDS011;7019;50.766;4.474;2022-07-23T00:25:58;17.60;;;14.97;;
13897;SDS011;7019;50.766;4.474;2022-07-23T00:28:25;18.73;;;15.40;;
13897;SDS011;7019;50.766;4.474;2022-07-23T00:30:52;18.33;;;13.87;;
13897;SDS011;7019;50.766;4.474;2022-07-23T00:33:19;20.10;;;17.40;;
13897;SDS011;7019;50.766;4.474;2022-07-23T00:35:46;20.40;;;14.60;;
13897;SDS011;7019;50.766;4.474;2022-07-23T00:38:15;16.43;;;14.70;;
13897;SDS011;7019;50.766;4.474;2022-07-23T00:40:42;15.73;;;14.10;;
13897;SDS011;7019;50.766;4.474;2022-07-23T00:43:09;23.07;;;17.10;;
13897;SDS011;7019;50.766;4.474;2022-07-23T00:45:36;18.93;;;14.30;;
13897;SDS011;7019;50.766;4.474;2022-07-23T00:48:03;21.90;;;16.03;;
13897;SDS011;7019;50.766;4.474;2022-07-23T00:50:30;16.87;;;14.77;;
13897;SDS011;7019;50.766;4.474;2022-07-23T00:52:57;17.80;;;15.30;;
13897;SDS011;7019;50.766;4.474;2022-07-23T00:55:25;18.37;;;15.40;;
13897;SDS011;7019;50.766;4.474;2022-07-23T00:57:53;18.50;;;14.30;;
13897;SDS011;7019;50.766;4.474;2022-07-23T01:00:22;18.00;;;15.10;;
13897;SDS011;7019;50.766;4.474;2022-07-23T01:02:49;17.10;;;14.37;;
13897;SDS011;7019;50.766;4.474;2022-07-23T01:05:16;20.47;;;16.37;;
13897;SDS011;7019;50.766;4.474;2022-07-23T01:07:47;22.80;;;17.03;;
13897;SDS011;7019;50.766;4.474;2022-07-23T01:10:14;22.43;;;18.50;;
13897;SDS011;7019;50.766;4.474;2022-07-23T01:12:58;18.57;;;15.83;;
13897;SDS011;7019;50.766;4.474;2022-07-23T01:15:26;17.23;;;14.43;;
13897;SDS011;7019;50.766;4.474;2022-07-23T01:17:54;20.17;;;14.60;;
13897;SDS011;7019;50.766;4.474;2022-07-23T01:20:21;19.37;;;15.30;;
13897;SDS011;7019;50.766;4.474;2022-07-23T01:22:50;18.77;;;15.17;;
13897;SDS011;7019;50.766;4.474;2022-07-23T01:25:18;19.77;;;15.30;;
13897;SDS011;7019;50.766;4.474;2022-07-23T01:27:45;20.73;;;14.80;;
13897;SDS011;7019;50.766;4.474;2022-07-23T01:30:12;17.87;;;15.97;;
13897;SDS011;7019;50.766;4.474;2022-07-23T01:32:40;17.87;;;15.23;;
13897;SDS011;7019;50.766;4.474;2022-07-23T01:35:07;19.60;;;15.83;;
13897;SDS011;7019;50.766;4.474;2022-07-23T01:37:35;23.37;;;16.17;;
13897;SDS011;7019;50.766;4.474;2022-07-23T01:40:05;17.00;;;15.20;;
13897;SDS011;7019;50.766;4.474;2022-07-23T01:42:33;18.60;;;15.53;;
13897;SDS011;7019;50.766;4.474;2022-07-23T01:45:01;20.27;;;14.43;;
13897;SDS011;7019;50.766;4.474;2022-07-23T01:47:29;22.67;;;15.07;;
13897;SDS011;7019;50.766;4.474;2022-07-23T01:49:56;19.13;;;15.97;;
13897;SDS011;7019;50.766;4.474;2022-07-23T01:52:23;31.03;;;22.33;;
13897;SDS011;7019;50.766;4.474;2022-07-23T01:54:50;22.70;;;17.90;;
13897;SDS011;7019;50.766;4.474;2022-07-23T01:57:19;26.80;;;22.53;;
13897;SDS011;7019;50.766;4.474;2022-07-23T01:59:46;29.37;;;22.63;;
13897;SDS011;7019;50.766;4.474;2022-07-23T02:02:13;24.33;;;18.97;;
13897;SDS011;7019;50.766;4.474;2022-07-23T02:04:40;23.67;;;18.47;;
13897;SDS011;7019;50.766;4.474;2022-07-23T02:07:07;22.20;;;17.60;;
13897;SDS011;7019;50.766;4.474;2022-07-23T02:09:34;19.80;;;17.70;;
13897;SDS011;7019;50.766;4.474;2022-07-23T02:12:01;22.07;;;17.80;;
13897;SDS011;7019;50.766;4.474;2022-07-23T02:14:30;18.67;;;16.63;;
13897;SDS011;7019;50.766;4.474;2022-07-23T02:16:57;20.10;;;16.80;;
13897;SDS011;7019;50.766;4.474;2022-07-23T02:19:24;18.80;;;15.67;;
13897;SDS011;7019;50.766;4.474;2022-07-23T02:21:51;22.90;;;18.17;;
13897;SDS011;7019;50.766;4.474;2022-07-23T02:24:19;19.53;;;16.63;;
13897;SDS011;7019;50.766;4.474;2022-07-23T02:26:46;20.60;;;16.33;;
13897;SDS011;7019;50.766;4.474;2022-07-23T02:29:13;24.77;;;18.53;;
13897;SDS011;7019;50.766;4.474;2022-07-23T02:31:42;16.43;;;14.70;;
13897;SDS011;7019;50.766;4.474;2022-07-23T02:34:10;20.07;;;16.27;;
13897;SDS011;7019;50.766;4.474;2022-07-23T02:36:37;26.63;;;20.57;;
13897;SDS011;7019;50.766;4.474;2022-07-23T02:39:05;21.33;;;16.63;;
13897;SDS011;7019;50.766;4.474;2022-07-23T02:41:32;19.60;;;16.13;;
13897;SDS011;7019;50.766;4.474;2022-07-23T02:43:59;18.77;;;16.00;;
13897;SDS011;7019;50.766;4.474;2022-07-23T02:46:26;18.40;;;16.00;;
13897;SDS011;7019;50.766;4.474;2022-07-23T02:48:54;20.80;;;16.03;;
13897;SDS011;7019;50.766;4.474;2022-07-23T02:51:21;20.23;;;15.73;;
13897;SDS011;7019;50.766;4.474;2022-07-23T02:53:48;18.47;;;14.87;;
13897;SDS011;7019;50.766;4.474;2022-07-23T02:56:15;17.23;;;15.43;;
13897;SDS011;7019;50.766;4.474;2022-07-23T02:58:42;17.37;;;14.63;;
13897;SDS011;7019;50.766;4.474;2022-07-23T03:01:09;17.83;;;14.90;;
13897;SDS011;7019;50.766;4.474;2022-07-23T03:03:36;17.57;;;15.00;;
13897;SDS011;7019;50.766;4.474;2022-07-23T03:06:05;16.93;;;14.43;;
13897;SDS011;7019;50.766;4.474;2022-07-23T03:08:32;17.80;;;14.23;;
13897;SDS011;7019;50.766;4.474;2022-07-23T03:10:59;16.80;;;13.80;;
13897;SDS011;7019;50.766;4.474;2022-07-23T03:13:26;17.73;;;14.27;;
13897;SDS011;7019;50.766;4.474;2022-07-23T03:15:54;16.67;;;14.33;;
13897;SDS011;7019;50.766;4.474;2022-07-23T03:18:21;18.13;;;14.63;;
13897;SDS011;7019;50.766;4.474;2022-07-23T03:20:49;17.63;;;14.77;;
13897;SDS011;7019;50.766;4.474;2022-07-23T03:23:17;18.77;;;14.47;;
13897;SDS011;7019;50.766;4.474;2022-07-23T03:25:44;18.30;;;14.13;;
13897;SDS011;7019;50.766;4.474;2022-07-23T03:28:13;18.97;;;14.77;;
13897;SDS011;7019;50.766;4.474;2022-07-23T03:30:40;16.93;;;14.20;;
13897;SDS011;7019;50.766;4.474;2022-07-23T03:33:08;16.87;;;14.53;;
13897;SDS011;7019;50.766;4.474;2022-07-23T03:35:35;17.50;;;14.53;;
13897;SDS011;7019;50.766;4.474;2022-07-23T03:38:02;15.53;;;13.90;;
13897;SDS011;7019;50.766;4.474;2022-07-23T03:40:30;16.17;;;14.00;;
13897;SDS011;7019;50.766;4.474;2022-07-23T03:42:57;17.70;;;14.30;;
13897;SDS011;7019;50.766;4.474;2022-07-23T03:45:24;16.23;;;13.33;;
13897;SDS011;7019;50.766;4.474;2022-07-23T03:47:51;15.63;;;13.73;;
13897;SDS011;7019;50.766;4.474;2022-07-23T03:50:19;18.13;;;13.60;;
13897;SDS011;7019;50.766;4.474;2022-07-23T03:52:46;17.20;;;14.00;;
13897;SDS011;7019;50.766;4.474;2022-07-23T03:55:14;17.07;;;13.60;;
13897;SDS011;7019;50.766;4.474;2022-07-23T03:57:42;18.33;;;14.27;;
13897;SDS011;7019;50.766;4.474;2022-07-23T04:00:10;15.23;;;13.63;;
13897;SDS011;7019;50.766;4.474;2022-07-23T04:02:38;16.63;;;14.03;;
13897;SDS011;7019;50.766;4.474;2022-07-23T04:05:06;16.07;;;13.37;;
13897;SDS011;7019;50.766;4.474;2022-07-23T04:07:33;16.47;;;14.00;;
13897;SDS011;7019;50.766;4.474;2022-07-23T04:10:00;17.10;;;13.60;;
13897;SDS011;7019;50.766;4.474;2022-07-23T04:12:27;17.03;;;13.57;;
13897;SDS011;7019;50.766;4.474;2022-07-23T04:14:56;18.17;;;13.43;;
13897;SDS011;7019;50.766;4.474;2022-07-23T04:17:23;16.80;;;12.80;;
13897;SDS011;7019;50.766;4.474;2022-07-23T04:19:50;16.70;;;12.50;;
13897;SDS011;7019;50.766;4.474;2022-07-23T04:22:17;17.67;;;12.97;;
13897;SDS011;7019;50.766;4.474;2022-07-23T04:24:44;14.37;;;12.77;;
13897;SDS011;7019;50.766;4.474;2022-07-23T04:27:11;14.90;;;13.23;;
13897;SDS011;7019;50.766;4.474;2022-07-23T04:29:38;17.50;;;14.43;;
13897;SDS011;7019;50.766;4.474;2022-07-23T04:32:07;14.77;;;13.27;;
13897;SDS011;7019;50.766;4.474;2022-07-23T04:34:34;14.60;;;13.10;;
13897;SDS011;7019;50.766;4.474;2022-07-23T04:37:02;14.83;;;13.30;;
13897;SDS011;7019;50.766;4.474;2022-07-23T04:39:29;15.57;;;12.60;;
13897;SDS011;7019;50.766;4.474;2022-07-23T04:41:56;13.73;;;12.30;;
13897;SDS011;7019;50.766;4.474;2022-07-23T04:44:23;13.23;;;11.83;;
13897;SDS011;7019;50.766;4.474;2022-07-23T04:46:51;14.20;;;12.20;;
13897;SDS011;7019;50.766;4.474;2022-07-23T04:49:19;14.83;;;12.23;;
13897;SDS011;7019;50.766;4.474;2022-07-23T04:51:46;15.07;;;12.23;;
13897;SDS011;7019;50.766;4.474;2022-07-23T04:54:13;15.47;;;12.90;;
13897;SDS011;7019;50.766;4.474;2022-07-23T04:56:40;16.33;;;12.50;;
13897;SDS011;7019;50.766;4.474;2022-07-23T04:59:07;16.60;;;13.53;;
13897;SDS011;7019;50.766;4.474;2022-07-23T05:01:34;14.53;;;12.43;;
13897;SDS011;7019;50.766;4.474;2022-07-23T05:04:01;15.50;;;13.20;;
13897;SDS011;7019;50.766;4.474;2022-07-23T05:06:30;16.53;;;14.27;;
13897;SDS011;7019;50.766;4.474;2022-07-23T05:08:57;21.53;;;15.97;;
13897;SDS011;7019;50.766;4.474;2022-07-23T05:11:24;23.33;;;15.80;;
13897;SDS011;7019;50.766;4.474;2022-07-23T05:13:51;16.87;;;15.03;;
13897;SDS011;7019;50.766;4.474;2022-07-23T05:16:18;17.30;;;14.07;;
13897;SDS011;7019;50.766;4.474;2022-07-23T05:18:46;19.60;;;15.00;;
13897;SDS011;7019;50.766;4.474;2022-07-23T05:21:13;20.73;;;15.57;;
13897;SDS011;7019;50.766;4.474;2022-07-23T05:23:41;17.97;;;15.10;;
13897;SDS011;7019;50.766;4.474;2022-07-23T05:26:08;19.93;;;16.57;;
13897;SDS011;7019;50.766;4.474;2022-07-23T05:28:35;18.70;;;14.53;;
13897;SDS011;7019;50.766;4.474;2022-07-23T05:31:02;20.13;;;16.03;;
13897;SDS011;7019;50.766;4.474;2022-07-23T05:33:29;17.07;;;15.13;;
13897;SDS011;7019;50.766;4.474;2022-07-23T05:35:59;19.57;;;14.93;;
13897;SDS011;7019;50.766;4.474;2022-07-23T05:38:28;19.73;;;14.67;;
13897;SDS011;7019;50.766;4.474;2022-07-23T05:40:56;17.00;;;14.17;;
13897;SDS011;7019;50.766;4.474;2022-07-23T05:43:23;17.43;;;15.70;;
13897;SDS011;7019;50.766;4.474;2022-07-23T05:45:50;17.23;;;14.20;;
13897;SDS011;7019;50.766;4.474;2022-07-23T05:48:18;18.47;;;13.83;;
13897;SDS011;7019;50.766;4.474;2022-07-23T05:50:46;17.70;;;15.80;;
13897;SDS011;7019;50.766;4.474;2022-07-23T05:53:13;17.80;;;14.63;;
13897;SDS011;7019;50.766;4.474;2022-07-23T05:55:40;17.53;;;14.80;;
13897;SDS011;7019;50.766;4.474;2022-07-23T05:58:08;23.47;;;18.27;;
13897;SDS011;7019;50.766;4.474;2022-07-23T06:00:35;16.00;;;14.03;;
13897;SDS011;7019;50.766;4.474;2022-07-23T06:03:02;17.93;;;15.27;;
13897;SDS011;7019;50.766;4.474;2022-07-23T06:05:29;20.53;;;15.47;;
13897;SDS011;7019;50.766;4.474;2022-07-23T06:07:57;18.33;;;15.30;;
13897;SDS011;7019;50.766;4.474;2022-07-23T06:10:24;21.13;;;15.07;;
13897;SDS011;7019;50.766;4.474;2022-07-23T06:12:51;19.33;;;17.03;;
13897;SDS011;7019;50.766;4.474;2022-07-23T06:15:19;17.03;;;14.00;;
13897;SDS011;7019;50.766;4.474;2022-07-23T06:17:46;17.77;;;15.87;;
13897;SDS011;7019;50.766;4.474;2022-07-23T06:20:13;18.03;;;16.07;;
13897;SDS011;7019;50.766;4.474;2022-07-23T06:22:40;18.70;;;15.70;;
13897;SDS011;7019;50.766;4.474;2022-07-23T06:25:07;19.17;;;14.53;;
13897;SDS011;7019;50.766;4.474;2022-07-23T06:27:35;15.63;;;13.50;;
13897;SDS011;7019;50.766;4.474;2022-07-23T06:30:02;16.50;;;13.10;;
13897;SDS011;7019;50.766;4.474;2022-07-23T06:32:31;14.03;;;11.97;;
13897;SDS011;7019;50.766;4.474;2022-07-23T06:34:58;14.80;;;12.57;;
13897;SDS011;7019;50.766;4.474;2022-07-23T06:37:25;12.30;;;10.97;;
13897;SDS011;7019;50.766;4.474;2022-07-23T06:39:52;13.87;;;12.57;;
13897;SDS011;7019;50.766;4.474;2022-07-23T06:42:19;14.50;;;12.07;;
13897;SDS011;7019;50.766;4.474;2022-07-23T06:44:46;12.83;;;11.50;;
13897;SDS011;7019;50.766;4.474;2022-07-23T06:47:13;13.30;;;11.20;;
13897;SDS011;7019;50.766;4.474;2022-07-23T06:49:41;13.40;;;10.73;;
13897;SDS011;7019;50.766;4.474;2022-07-23T06:52:08;11.53;;;10.47;;
13897;SDS011;7019;50.766;4.474;2022-07-23T06:54:35;14.67;;;11.93;;
13897;SDS011;7019;50.766;4.474;2022-07-23T06:57:02;13.17;;;11.43;;
13897;SDS011;7019;50.766;4.474;2022-07-23T06:59:29;12.93;;;11.23;;
13897;SDS011;7019;50.766;4.474;2022-07-23T07:01:56;10.70;;;9.60;;
13897;SDS011;7019;50.766;4.474;2022-07-23T07:04:23;10.70;;;9.73;;
13897;SDS011;7019;50.766;4.474;2022-07-23T07:06:52;12.60;;;10.10;;
13897;SDS011;7019;50.766;4.474;2022-07-23T07:09:19;12.33;;;9.97;;
13897;SDS011;7019;50.766;4.474;2022-07-23T07:11:46;11.07;;;8.87;;
13897;SDS011;7019;50.766;4.474;2022-07-23T07:14:13;11.88;;;8.57;;
13897;SDS011;7019;50.766;4.474;2022-07-23T07:16:40;9.85;;;8.40;;
13897;SDS011;7019;50.766;4.474;2022-07-23T07:19:07;10.48;;;9.50;;
13897;SDS011;7019;50.766;4.474;2022-07-23T07:21:34;9.20;;;8.30;;
13897;SDS011;7019;50.766;4.474;2022-07-23T07:24:03;8.68;;;7.85;;
13897;SDS011;7019;50.766;4.474;2022-07-23T07:26:31;10.90;;;9.80;;
13897;SDS011;7019;50.766;4.474;2022-07-23T07:28:58;9.68;;;8.68;;
13897;SDS011;7019;50.766;4.474;2022-07-23T07:31:25;10.70;;;9.32;;
13897;SDS011;7019;50.766;4.474;2022-07-23T07:33:52;9.63;;;8.82;;
13897;SDS011;7019;50.766;4.474;2022-07-23T07:36:22;10.82;;;9.07;;
13897;SDS011;7019;50.766;4.474;2022-07-23T07:38:49;10.27;;;9.32;;
13897;SDS011;7019;50.766;4.474;2022-07-23T07:41:17;9.45;;;8.55;;
13897;SDS011;7019;50.766;4.474;2022-07-23T07:43:48;11.75;;;8.90;;
13897;SDS011;7019;50.766;4.474;2022-07-23T07:46:15;10.60;;;9.65;;
13897;SDS011;7019;50.766;4.474;2022-07-23T07:48:42;9.57;;;8.60;;
13897;SDS011;7019;50.766;4.474;2022-07-23T07:51:09;9.60;;;8.35;;
13897;SDS011;7019;50.766;4.474;2022-07-23T07:53:36;9.05;;;8.15;;
13897;SDS011;7019;50.766;4.474;2022-07-23T07:56:04;9.70;;;8.68;;
13897;SDS011;7019;50.766;4.474;2022-07-23T07:58:32;9.60;;;8.73;;
13897;SDS011;7019;50.766;4.474;2022-07-23T08:00:59;10.95;;;9.82;;
13897;SDS011;7019;50.766;4.474;2022-07-23T08:03:27;9.93;;;8.90;;
13897;SDS011;7019;50.766;4.474;2022-07-23T08:05:54;8.63;;;7.80;;
13897;SDS011;7019;50.766;4.474;2022-07-23T08:08:21;10.35;;;8.23;;
13897;SDS011;7019;50.766;4.474;2022-07-23T08:10:48;11.02;;;8.80;;
13897;SDS011;7019;50.766;4.474;2022-07-23T08:13:16;9.45;;;8.55;;
13897;SDS011;7019;50.766;4.474;2022-07-23T08:15:44;10.00;;;8.95;;
13897;SDS011;7019;50.766;4.474;2022-07-23T08:18:11;10.07;;;9.07;;
13897;SDS011;7019;50.766;4.474;2022-07-23T08:20:38;10.25;;;8.77;;
13897;SDS011;7019;50.766;4.474;2022-07-23T08:23:06;11.88;;;7.22;;
13897;SDS011;7019;50.766;4.474;2022-07-23T08:25:34;8.88;;;7.13;;
13897;SDS011;7019;50.766;4.474;2022-07-23T08:28:04;9.82;;;8.50;;
13897;SDS011;7019;50.766;4.474;2022-07-23T08:30:32;9.40;;;8.05;;
13897;SDS011;7019;50.766;4.474;2022-07-23T08:33:02;10.57;;;8.50;;
13897;SDS011;7019;50.766;4.474;2022-07-23T08:35:33;9.07;;;8.18;;
13897;SDS011;7019;50.766;4.474;2022-07-23T08:38:01;8.02;;;7.25;;
13897;SDS011;7019;50.766;4.474;2022-07-23T08:40:29;10.75;;;8.32;;
13897;SDS011;7019;50.766;4.474;2022-07-23T08:42:57;9.93;;;7.95;;
13897;SDS011;7019;50.766;4.474;2022-07-23T08:45:25;8.65;;;7.28;;
13897;SDS011;7019;50.766;4.474;2022-07-23T08:47:53;9.35;;;7.13;;
13897;SDS011;7019;50.766;4.474;2022-07-23T08:50:25;12.95;;;7.47;;
13897;SDS011;7019;50.766;4.474;2022-07-23T08:52:52;8.65;;;7.47;;
13897;SDS011;7019;50.766;4.474;2022-07-23T08:55:21;8.45;;;7.57;;
13897;SDS011;7019;50.766;4.474;2022-07-23T08:57:50;9.75;;;7.60;;
13897;SDS011;7019;50.766;4.474;2022-07-23T09:00:19;7.40;;;6.70;;
13897;SDS011;7019;50.766;4.474;2022-07-23T09:02:48;9.32;;;7.40;;
13897;SDS011;7019;50.766;4.474;2022-07-23T09:05:16;9.45;;;7.15;;
13897;SDS011;7019;50.766;4.474;2022-07-23T09:10:47;8.70;;;6.82;;
13897;SDS011;7019;50.766;4.474;2022-07-23T09:13:32;9.40;;;6.85;;
13897;SDS011;7019;50.766;4.474;2022-07-23T09:16:02;8.18;;;6.20;;
13897;SDS011;7019;50.766;4.474;2022-07-23T09:18:32;6.50;;;4.82;;
13897;SDS011;7019;50.766;4.474;2022-07-23T09:21:10;8.93;;;6.00;;
13897;SDS011;7019;50.766;4.474;2022-07-23T09:23:42;7.00;;;5.72;;
13897;SDS011;7019;50.766;4.474;2022-07-23T09:26:20;8.15;;;6.47;;
13897;SDS011;7019;50.766;4.474;2022-07-23T09:28:53;7.85;;;6.13;;
13897;SDS011;7019;50.766;4.474;2022-07-23T09:31:22;7.80;;;6.32;;
13897;SDS011;7019;50.766;4.474;2022-07-23T09:33:50;10.95;;;7.50;;
13897;SDS011;7019;50.766;4.474;2022-07-23T09:36:26;8.32;;;6.28;;
13897;SDS011;7019;50.766;4.474;2022-07-23T09:38:54;8.18;;;6.70;;
13897;SDS011;7019;50.766;4.474;2022-07-23T09:41:23;7.22;;;6.35;;
13897;SDS011;7019;50.766;4.474;2022-07-23T09:43:54;8.63;;;5.82;;
13897;SDS011;7019;50.766;4.474;2022-07-23T09:46:23;8.73;;;6.00;;
13897;SDS011;7019;50.766;4.474;2022-07-23T09:48:51;8.38;;;6.82;;
13897;SDS011;7019;50.766;4.474;2022-07-23T09:51:21;6.35;;;5.72;;
13897;SDS011;7019;50.766;4.474;2022-07-23T09:53:52;6.03;;;5.05;;
13897;SDS011;7019;50.766;4.474;2022-07-23T09:56:20;8.68;;;5.68;;
13897;SDS011;7019;50.766;4.474;2022-07-23T09:58:50;7.50;;;4.78;;
13897;SDS011;7019;50.766;4.474;2022-07-23T10:01:26;7.28;;;4.45;;
13897;SDS011;7019;50.766;4.474;2022-07-23T10:03:54;8.07;;;5.18;;
13897;SDS011;7019;50.766;4.474;2022-07-23T10:06:22;5.97;;;4.60;;
13897;SDS011;7019;50.766;4.474;2022-07-23T10:08:50;4.57;;;4.05;;
13897;SDS011;7019;50.766;4.474;2022-07-23T10:11:19;9.30;;;4.82;;
13897;SDS011;7019;50.766;4.474;2022-07-23T10:13:46;5.05;;;4.00;;
13897;SDS011;7019;50.766;4.474;2022-07-23T10:16:21;4.38;;;3.95;;
13897;SDS011;7019;50.766;4.474;2022-07-23T10:18:48;6.80;;;4.28;;
13897;SDS011;7019;50.766;4.474;2022-07-23T10:21:17;5.20;;;4.00;;
13897;SDS011;7019;50.766;4.474;2022-07-23T10:23:51;5.22;;;4.53;;
13897;SDS011;7019;50.766;4.474;2022-07-23T10:26:37;6.65;;;3.97;;
13897;SDS011;7019;50.766;4.474;2022-07-23T10:29:13;7.03;;;3.60;;
13897;SDS011;7019;50.766;4.474;2022-07-23T10:31:52;6.97;;;4.60;;
13897;SDS011;7019;50.766;4.474;2022-07-23T10:34:29;5.43;;;4.57;;
13897;SDS011;7019;50.766;4.474;2022-07-23T10:37:05;5.30;;;3.78;;
13897;SDS011;7019;50.766;4.474;2022-07-23T10:39:40;5.10;;;4.10;;
13897;SDS011;7019;50.766;4.474;2022-07-23T10:42:08;6.80;;;3.80;;
13897;SDS011;7019;50.766;4.474;2022-07-23T10:44:39;6.70;;;4.00;;
13897;SDS011;7019;50.766;4.474;2022-07-23T10:47:09;6.75;;;3.72;;
13897;SDS011;7019;50.766;4.474;2022-07-23T10:50:23;4.72;;;3.70;;
13897;SDS011;7019;50.766;4.474;2022-07-23T10:53:08;5.03;;;3.47;;
13897;SDS011;7019;50.766;4.474;2022-07-23T10:55:39;4.78;;;4.38;;
13897;SDS011;7019;50.766;4.474;2022-07-23T10:58:08;4.97;;;3.95;;
13897;SDS011;7019;50.766;4.474;2022-07-23T11:00:35;5.55;;;4.15;;
13897;SDS011;7019;50.766;4.474;2022-07-23T11:03:03;4.38;;;3.97;;
13897;SDS011;7019;50.766;4.474;2022-07-23T11:05:42;4.60;;;3.70;;
13897;SDS011;7019;50.766;4.474;2022-07-23T11:08:14;4.00;;;3.60;;
13897;SDS011;7019;50.766;4.474;2022-07-23T11:10:45;10.80;;;4.40;;
13897;SDS011;7019;50.766;4.474;2022-07-23T11:13:29;6.00;;;3.33;;
13897;SDS011;7019;50.766;4.474;2022-07-23T11:16:20;4.47;;;3.63;;
13897;SDS011;7019;50.766;4.474;2022-07-23T11:19:05;4.60;;;3.17;;
13897;SDS011;7019;50.766;4.474;2022-07-23T11:24:25;3.95;;;3.20;;
13897;SDS011;7019;50.766;4.474;2022-07-23T11:26:56;4.30;;;2.90;;
13897;SDS011;7019;50.766;4.474;2022-07-23T11:29:38;5.50;;;3.72;;
13897;SDS011;7019;50.766;4.474;2022-07-23T11:32:18;4.88;;;3.70;;
13897;SDS011;7019;50.766;4.474;2022-07-23T11:34:55;4.95;;;3.85;;
13897;SDS011;7019;50.766;4.474;2022-07-23T11:37:28;5.68;;;3.35;;
13897;SDS011;7019;50.766;4.474;2022-07-23T11:39:59;3.92;;;3.17;;
13897;SDS011;7019;50.766;4.474;2022-07-23T11:42:26;5.85;;;3.00;;
13897;SDS011;7019;50.766;4.474;2022-07-23T11:44:53;3.28;;;2.83;;
13897;SDS011;7019;50.766;4.474;2022-07-23T11:47:21;6.25;;;3.50;;
13897;SDS011;7019;50.766;4.474;2022-07-23T11:49:53;3.95;;;3.38;;
13897;SDS011;7019;50.766;4.474;2022-07-23T11:52:21;5.03;;;3.03;;
13897;SDS011;7019;50.766;4.474;2022-07-23T11:54:51;4.72;;;2.42;;
13897;SDS011;7019;50.766;4.474;2022-07-23T11:57:21;3.42;;;3.00;;
13897;SDS011;7019;50.766;4.474;2022-07-23T11:59:53;6.05;;;3.10;;
13897;SDS011;7019;50.766;4.474;2022-07-23T12:02:21;4.82;;;3.13;;
13897;SDS011;7019;50.766;4.474;2022-07-23T12:04:50;3.60;;;2.80;;
13897;SDS011;7019;50.766;4.474;2022-07-23T12:07:29;3.72;;;2.72;;
13897;SDS011;7019;50.766;4.474;2022-07-23T12:09:59;3.50;;;3.05;;
13897;SDS011;7019;50.766;4.474;2022-07-23T12:12:34;5.28;;;2.83;;
13897;SDS011;7019;50.766;4.474;2022-07-23T12:15:03;3.17;;;2.58;;
13897;SDS011;7019;50.766;4.474;2022-07-23T12:17:32;4.57;;;3.38;;
13897;SDS011;7019;50.766;4.474;2022-07-23T12:20:00;4.57;;;2.95;;
13897;SDS011;7019;50.766;4.474;2022-07-23T12:22:33;3.17;;;2.88;;
13897;SDS011;7019;50.766;4.474;2022-07-23T12:25:04;3.25;;;2.95;;
13897;SDS011;7019;50.766;4.474;2022-07-23T12:27:33;4.05;;;2.80;;
13897;SDS011;7019;50.766;4.474;2022-07-23T12:30:17;3.45;;;3.15;;
13897;SDS011;7019;50.766;4.474;2022-07-23T12:32:46;3.90;;;3.22;;
13897;SDS011;7019;50.766;4.474;2022-07-23T12:35:15;3.05;;;2.63;;
13897;SDS011;7019;50.766;4.474;2022-07-23T12:37:43;3.75;;;3.28;;
13897;SDS011;7019;50.766;4.474;2022-07-23T12:40:20;4.82;;;2.97;;
13897;SDS011;7019;50.766;4.474;2022-07-23T12:42:49;3.00;;;2.72;;
13897;SDS011;7019;50.766;4.474;2022-07-23T12:45:17;3.95;;;2.80;;
13897;SDS011;7019;50.766;4.474;2022-07-23T12:50:36;3.15;;;2.42;;
13897;SDS011;7019;50.766;4.474;2022-07-23T12:53:06;2.85;;;2.60;;
13897;SDS011;7019;50.766;4.474;2022-07-23T12:55:36;3.20;;;3.00;;
13897;SDS011;7019;50.766;4.474;2022-07-23T12:58:09;5.10;;;2.90;;
13897;SDS011;7019;50.766;4.474;2022-07-23T13:00:55;3.90;;;3.35;;
13897;SDS011;7019;50.766;4.474;2022-07-23T13:03:37;5.43;;;3.10;;
13897;SDS011;7019;50.766;4.474;2022-07-23T13:06:07;4.43;;;3.20;;
13897;SDS011;7019;50.766;4.474;2022-07-23T13:08:36;5.97;;;3.10;;
13897;SDS011;7019;50.766;4.474;2022-07-23T13:11:06;6.22;;;3.15;;
13897;SDS011;7019;50.766;4.474;2022-07-23T13:13:34;4.93;;;3.40;;
13897;SDS011;7019;50.766;4.474;2022-07-23T13:16:01;3.80;;;3.35;;
13897;SDS011;7019;50.766;4.474;2022-07-23T13:18:29;4.03;;;3.38;;
13897;SDS011;7019;50.766;4.474;2022-07-23T13:20:57;3.90;;;2.83;;
13897;SDS011;7019;50.766;4.474;2022-07-23T13:23:25;3.33;;;2.95;;
13897;SDS011;7019;50.766;4.474;2022-07-23T13:25:53;4.20;;;3.20;;
13897;SDS011;7019;50.766;4.474;2022-07-23T13:28:22;4.88;;;3.15;;
13897;SDS011;7019;50.766;4.474;2022-07-23T13:30:49;4.63;;;3.85;;
13897;SDS011;7019;50.766;4.474;2022-07-23T13:33:17;5.72;;;3.72;;
13897;SDS011;7019;50.766;4.474;2022-07-23T13:35:45;5.97;;;3.45;;
13897;SDS011;7019;50.766;4.474;2022-07-23T13:38:13;3.72;;;3.40;;
13897;SDS011;7019;50.766;4.474;2022-07-23T13:40:41;4.22;;;3.20;;
13897;SDS011;7019;50.766;4.474;2022-07-23T13:43:11;4.65;;;2.95;;
13897;SDS011;7019;50.766;4.474;2022-07-23T13:45:41;4.00;;;3.38;;
13897;SDS011;7019;50.766;4.474;2022-07-23T13:48:09;4.35;;;3.78;;
13897;SDS011;7019;50.766;4.474;2022-07-23T13:50:38;4.25;;;3.53;;
13897;SDS011;7019;50.766;4.474;2022-07-23T13:53:07;4.93;;;3.30;;
13897;SDS011;7019;50.766;4.474;2022-07-23T13:55:36;6.00;;;3.80;;
13897;SDS011;7019;50.766;4.474;2022-07-23T13:58:04;6.07;;;3.92;;
13897;SDS011;7019;50.766;4.474;2022-07-23T14:00:32;6.30;;;3.50;;
13897;SDS011;7019;50.766;4.474;2022-07-23T14:03:02;5.13;;;3.70;;
13897;SDS011;7019;50.766;4.474;2022-07-23T14:05:29;6.00;;;3.72;;
13897;SDS011;7019;50.766;4.474;2022-07-23T14:07:56;3.95;;;3.47;;
13897;SDS011;7019;50.766;4.474;2022-07-23T14:10:23;4.95;;;4.30;;
13897;SDS011;7019;50.766;4.474;2022-07-23T14:12:51;4.07;;;3.60;;
13897;SDS011;7019;50.766;4.474;2022-07-23T14:15:21;5.25;;;3.55;;
13897;SDS011;7019;50.766;4.474;2022-07-23T14:17:49;5.70;;;3.65;;
13897;SDS011;7019;50.766;4.474;2022-07-23T14:20:17;4.78;;;3.55;;
13897;SDS011;7019;50.766;4.474;2022-07-23T14:22:45;6.38;;;3.67;;
13897;SDS011;7019;50.766;4.474;2022-07-23T14:25:12;6.38;;;3.58;;
13897;SDS011;7019;50.766;4.474;2022-07-23T14:27:39;5.20;;;3.72;;
13897;SDS011;7019;50.766;4.474;2022-07-23T14:30:07;4.95;;;3.42;;
13897;SDS011;7019;50.766;4.474;2022-07-23T14:32:35;4.10;;;3.35;;
13897;SDS011;7019;50.766;4.474;2022-07-23T14:35:03;6.15;;;3.85;;
13897;SDS011;7019;50.766;4.474;2022-07-23T14:37:33;6.13;;;3.92;;
13897;SDS011;7019;50.766;4.474;2022-07-23T14:40:00;4.78;;;3.50;;
13897;SDS011;7019;50.766;4.474;2022-07-23T14:42:28;5.20;;;3.33;;
13897;SDS011;7019;50.766;4.474;2022-07-23T14:44:55;3.90;;;3.20;;
13897;SDS011;7019;50.766;4.474;2022-07-23T14:47:22;4.78;;;3.60;;
13897;SDS011;7019;50.766;4.474;2022-07-23T14:49:49;4.78;;;4.07;;
13897;SDS011;7019;50.766;4.474;2022-07-23T14:52:16;4.80;;;4.30;;
13897;SDS011;7019;50.766;4.474;2022-07-23T14:54:44;6.15;;;3.63;;
13897;SDS011;7019;50.766;4.474;2022-07-23T14:57:12;4.88;;;3.55;;
13897;SDS011;7019;50.766;4.474;2022-07-23T14:59:39;6.38;;;3.90;;
13897;SDS011;7019;50.766;4.474;2022-07-23T15:02:08;5.45;;;3.63;;
13897;SDS011;7019;50.766;4.474;2022-07-23T15:04:35;4.45;;;3.78;;
13897;SDS011;7019;50.766;4.474;2022-07-23T15:07:02;5.78;;;4.28;;